^^
Your Local Weather - Clay, NY Station Historical Data
Daily Summary for December 20, 2017 Units:  English    Metric   Both
« Previous Day
Next Day »
Daily Weekly Monthly Yearly Custom
  High: Low: Average:
Temperature: 39.6 °F 27.3 °F 32.5 °F
Dew Point: 30.0 °F 17.4 °F 24.4 °F
Humidity: 88% 63% 72%
Wind Speed: 7.0mph 0.0mph 3.6mph
Wind Gust: 14.0mph - -
Wind- - WNW
Pressure: 30.07 in 29.68 in -
Precipitation: 0.00 in    
Historical Graphs
 
 
Tabular Data for December 20, 2017
Time Temperature Dew Point Pressure Wind Wind Speed Wind Gust Humidity Rainfall Rate (Hourly) solar
00:00 39.6 °F 28.0 °F 29.68 in West 5.0 mph 8.0 mph 63% 0.00 in 0 W/m2
00:06 39.4 °F 27.8 °F 29.68 in NW 4.0 mph 8.0 mph 63% 0.00 in 0 W/m2
00:12 39.3 °F 27.7 °F 29.68 in WNW 5.0 mph 5.0 mph 63% 0.00 in 0 W/m2
00:18 39.2 °F 27.7 °F 29.68 in WNW 5.0 mph 11.0 mph 63% 0.00 in 0 W/m2
00:24 39.2 °F 27.7 °F 29.69 in NW 5.0 mph 5.0 mph 63% 0.00 in 0 W/m2
00:30 39.0 °F 27.5 °F 29.69 in WNW 4.0 mph 4.0 mph 63% 0.00 in 0 W/m2
00:36 38.9 °F 27.8 °F 29.69 in WSW 3.0 mph 6.0 mph 64% 0.00 in 0 W/m2
00:42 38.9 °F 27.8 °F 29.69 in WSW 4.0 mph 6.0 mph 64% 0.00 in 0 W/m2
00:48 39.1 °F 27.9 °F 29.69 in West 5.0 mph 12.0 mph 64% 0.00 in 0 W/m2
00:54 39.0 °F 27.8 °F 29.69 in WNW 6.0 mph 6.0 mph 64% 0.00 in 0 W/m2
01:00 38.8 °F 28.0 °F 29.69 in NNW 5.0 mph 5.0 mph 65% 0.00 in 0 W/m2
01:02 38.7 °F 27.9 °F 29.69 in WNW 5.0 mph 11.0 mph 65% 0.00 in 0 W/m2
01:08 38.8 °F 28.0 °F 29.70 in West 6.0 mph 11.0 mph 65% 0.00 in 0 W/m2
01:14 38.9 °F 28.1 °F 29.70 in WNW 6.0 mph 12.0 mph 65% 0.00 in 0 W/m2
01:20 38.7 °F 27.9 °F 29.70 in West 5.0 mph 8.0 mph 65% 0.00 in 0 W/m2
01:22 38.6 °F 27.8 °F 29.70 in NW 4.0 mph 8.0 mph 65% 0.00 in 0 W/m2
01:28 38.5 °F 28.1 °F 29.70 in NW 4.0 mph 8.0 mph 66% 0.00 in 0 W/m2
01:34 38.4 °F 28.0 °F 29.70 in West 5.0 mph 10.0 mph 66% 0.00 in 0 W/m2
01:40 38.3 °F 27.9 °F 29.71 in WSW 5.0 mph 6.0 mph 66% 0.00 in 0 W/m2
01:46 38.2 °F 27.8 °F 29.72 in WNW 4.0 mph 6.0 mph 66% 0.00 in 0 W/m2
01:50 38.2 °F 27.8 °F 29.71 in WNW 5.0 mph 5.0 mph 66% 0.00 in 0 W/m2
01:56 38.2 °F 27.8 °F 29.72 in West 5.0 mph 7.0 mph 66% 0.00 in 0 W/m2
02:02 38.0 °F 27.6 °F 29.72 in WNW 5.0 mph 5.0 mph 66% 0.00 in 0 W/m2
02:08 37.9 °F 27.5 °F 29.72 in West 5.0 mph 5.0 mph 66% 0.00 in 0 W/m2
02:14 37.9 °F 27.5 °F 29.72 in WSW 5.0 mph 6.0 mph 66% 0.00 in 0 W/m2
02:20 37.9 °F 27.5 °F 29.72 in West 7.0 mph 14.0 mph 66% 0.00 in 0 W/m2
02:26 37.8 °F 27.5 °F 29.73 in West 6.0 mph 14.0 mph 66% 0.00 in 0 W/m2
02:32 37.6 °F 26.9 °F 29.73 in WSW 6.0 mph 6.0 mph 65% 0.00 in 0 W/m2
02:38 37.6 °F 26.9 °F 29.73 in WNW 6.0 mph 7.0 mph 65% 0.00 in 0 W/m2
02:46 37.6 °F 26.9 °F 29.74 in NW 5.0 mph 10.0 mph 65% 0.00 in 0 W/m2
02:52 37.6 °F 26.9 °F 29.74 in West 5.0 mph 5.0 mph 65% 0.00 in 0 W/m2
02:58 37.7 °F 26.6 °F 29.74 in WSW 5.0 mph 5.0 mph 64% 0.00 in 0 W/m2
03:04 37.7 °F 26.6 °F 29.75 in West 5.0 mph 5.0 mph 64% 0.00 in 0 W/m2
03:10 37.7 °F 26.6 °F 29.75 in WNW 5.0 mph 5.0 mph 64% 0.00 in 0 W/m2
03:16 37.7 °F 26.6 °F 29.75 in West 5.0 mph 8.0 mph 64% 0.00 in 0 W/m2
03:22 37.6 °F 26.9 °F 29.75 in NNW 5.0 mph 5.0 mph 65% 0.00 in 0 W/m2
03:28 36.0 °F 29.2 °F 29.76 in NW 6.0 mph 9.0 mph 76% 0.00 in 0 W/m2
03:34 34.9 °F 29.4 °F 29.77 in NW 6.0 mph 7.0 mph 80% 0.00 in 0 W/m2
03:40 34.1 °F 29.5 °F 29.77 in WNW 4.0 mph 5.0 mph 83% 0.00 in 0 W/m2
03:46 33.7 °F 29.7 °F 29.77 in WNW 4.0 mph 6.0 mph 85% 0.00 in 0 W/m2
03:52 33.7 °F 29.7 °F 29.77 in West 4.0 mph 4.0 mph 85% 0.00 in 0 W/m2
03:58 33.7 °F 30.0 °F 29.77 in NW 5.0 mph 9.0 mph 86% 0.00 in 0 W/m2
04:04 33.5 °F 29.8 °F 29.77 in WSW 5.0 mph 7.0 mph 86% 0.00 in 0 W/m2
04:10 33.3 °F 29.8 °F 29.77 in WSW 4.0 mph 4.0 mph 87% 0.00 in 0 W/m2
04:16 33.2 °F 29.8 °F 29.77 in WNW 4.0 mph 6.0 mph 87% 0.00 in 0 W/m2
04:22 33.2 °F 29.8 °F 29.77 in WNW 4.0 mph 5.0 mph 87% 0.00 in 0 W/m2
04:30 33.4 °F 29.9 °F 29.77 in WNW 5.0 mph 6.0 mph 87% 0.00 in 0 W/m2
04:36 33.4 °F 29.9 °F 29.77 in WSW 4.0 mph 6.0 mph 87% 0.00 in 0 W/m2
04:42 33.5 °F 29.8 °F 29.77 in WNW 4.0 mph 6.0 mph 86% 0.00 in 0 W/m2
04:48 33.5 °F 29.8 °F 29.77 in West 3.0 mph 6.0 mph 86% 0.00 in 0 W/m2
04:54 33.5 °F 29.5 °F 29.77 in WSW 3.0 mph 3.0 mph 85% 0.00 in 0 W/m2
05:00 33.6 °F 29.6 °F 29.78 in WSW 4.0 mph 7.0 mph 85% 0.00 in 0 W/m2
05:06 33.7 °F 29.4 °F 29.78 in West 4.0 mph 7.0 mph 84% 0.00 in 0 W/m2
05:12 33.6 °F 29.3 °F 29.78 in WSW 3.0 mph 8.0 mph 84% 0.00 in 0 W/m2
05:18 33.7 °F 29.4 °F 29.79 in West 4.0 mph 8.0 mph 84% 0.00 in 0 W/m2
05:24 33.7 °F 29.1 °F 29.79 in WNW 3.0 mph 7.0 mph 83% 0.00 in 0 W/m2
05:30 33.7 °F 29.1 °F 29.80 in WNW 4.0 mph 4.0 mph 83% 0.00 in 0 W/m2
05:36 33.7 °F 29.1 °F 29.80 in WNW 3.0 mph 4.0 mph 83% 0.00 in 0 W/m2
05:42 33.6 °F 29.0 °F 29.80 in West 3.0 mph 6.0 mph 83% 0.00 in 0 W/m2
05:48 33.7 °F 28.8 °F 29.81 in WNW 4.0 mph 6.0 mph 82% 0.00 in 0 W/m2
05:54 33.6 °F 28.7 °F 29.81 in NW 3.0 mph 4.0 mph 82% 0.00 in 0 W/m2
06:00 33.6 °F 28.7 °F 29.81 in NW 2.0 mph 6.0 mph 82% 0.00 in 0 W/m2
06:06 33.7 °F 28.5 °F 29.82 in West 3.0 mph 6.0 mph 81% 0.00 in 0 W/m2
06:12 33.9 °F 27.8 °F 29.82 in West 4.0 mph 7.0 mph 78% 0.00 in 0 W/m2
06:18 34.3 °F 26.9 °F 29.82 in West 4.0 mph 7.0 mph 74% 0.00 in 0 W/m2
06:22 34.5 °F 26.4 °F 29.82 in NW 4.0 mph 5.0 mph 72% 0.00 in 0 W/m2
06:28 34.6 °F 26.2 °F 29.82 in WNW 4.0 mph 5.0 mph 71% 0.00 in 0 W/m2
06:34 34.6 °F 25.8 °F 29.82 in WNW 3.0 mph 5.0 mph 70% 0.00 in 0 W/m2
06:40 34.7 °F 25.9 °F 29.82 in WNW 4.0 mph 4.0 mph 70% 0.00 in 0 W/m2
06:46 34.6 °F 25.5 °F 29.83 in West 3.0 mph 5.0 mph 69% 0.00 in 0 W/m2
06:52 34.6 °F 25.8 °F 29.83 in NW 3.0 mph 3.0 mph 70% 0.00 in 0 W/m2
06:58 34.5 °F 25.7 °F 29.83 in NW 3.0 mph 5.0 mph 70% 0.00 in 0 W/m2
07:04 34.5 °F 25.4 °F 29.84 in WNW 4.0 mph 5.0 mph 69% 0.00 in 0 W/m2
07:06 34.5 °F 25.4 °F 29.84 in WNW 3.0 mph 5.0 mph 69% 0.00 in 0 W/m2
07:12 34.5 °F 25.4 °F 29.84 in West 3.0 mph 5.0 mph 69% 0.00 in 0 W/m2
07:18 34.5 °F 25.4 °F 29.84 in WNW 3.0 mph 5.0 mph 69% 0.00 in 0 W/m2
07:24 34.4 °F 25.3 °F 29.84 in West 3.0 mph 4.0 mph 69% 0.00 in 0 W/m2
07:30 34.4 °F 25.3 °F 29.84 in NW 4.0 mph 5.0 mph 69% 0.00 in 0 W/m2
07:36 34.1 °F 25.3 °F 29.85 in West 5.0 mph 8.0 mph 70% 0.00 in 0 W/m2
07:42 33.8 °F 26.1 °F 29.85 in WNW 6.0 mph 13.0 mph 73% 0.00 in 0 W/m2
07:44 33.6 °F 25.9 °F 29.85 in NW 6.0 mph 13.0 mph 73% 0.00 in 0 W/m2
07:50 33.0 °F 26.6 °F 29.85 in West 5.0 mph 5.0 mph 77% 0.00 in 0 W/m2
07:56 32.7 °F 26.6 °F 29.86 in West 4.0 mph 5.0 mph 78% 0.00 in 0 W/m2
07:58 32.8 °F 26.1 °F 29.86 in NW 4.0 mph 6.0 mph 76% 0.00 in 0 W/m2
08:04 33.0 °F 25.9 °F 29.86 in WNW 4.0 mph 5.0 mph 75% 0.00 in 5 W/m2
08:10 32.9 °F 25.5 °F 29.86 in WNW 4.0 mph 4.0 mph 74% 0.00 in 7 W/m2
08:16 32.7 °F 25.6 °F 29.86 in NW 3.0 mph 4.0 mph 75% 0.00 in 12 W/m2
08:22 32.4 °F 26.0 °F 29.87 in WNW 3.0 mph 4.0 mph 77% 0.00 in 23 W/m2
08:28 32.3 °F 26.2 °F 29.88 in NNW 3.0 mph 4.0 mph 78% 0.00 in 21 W/m2
08:32 32.5 °F 26.1 °F 29.88 in WNW 3.0 mph 4.0 mph 77% 0.00 in 19 W/m2
08:38 32.8 °F 25.7 °F 29.88 in NW 3.0 mph 4.0 mph 75% 0.00 in 39 W/m2
08:44 33.2 °F 25.1 °F 29.88 in WNW 4.0 mph 8.0 mph 72% 0.00 in 53 W/m2
08:48 33.4 °F 25.3 °F 29.88 in WNW 4.0 mph 8.0 mph 72% 0.00 in 70 W/m2
09:00 33.7 °F 25.3 °F 29.88 in NW 4.0 mph 4.0 mph 71% 0.00 in 56 W/m2
09:06 33.6 °F 25.2 °F 29.89 in WNW 5.0 mph 6.0 mph 71% 0.00 in 62 W/m2
09:12 32.8 °F 25.4 °F 29.89 in WNW 6.0 mph 7.0 mph 74% 0.00 in 39 W/m2
09:18 32.1 °F 26.0 °F 29.90 in WNW 6.0 mph 7.0 mph 78% 0.00 in 32 W/m2
09:24 31.3 °F 26.4 °F 29.91 in NW 5.0 mph 6.0 mph 82% 0.00 in 51 W/m2
09:30 30.9 °F 26.9 °F 29.91 in NW 3.0 mph 4.0 mph 85% 0.00 in 51 W/m2
09:34 30.8 °F 27.1 °F 29.91 in WNW 3.0 mph 4.0 mph 86% 0.00 in 54 W/m2
09:40 30.7 °F 27.3 °F 29.91 in WNW 2.0 mph 2.0 mph 87% 0.00 in 47 W/m2
09:46 30.8 °F 27.4 °F 29.91 in WNW 2.0 mph 3.0 mph 87% 0.00 in 46 W/m2
09:52 30.8 °F 27.7 °F 29.91 in WNW 3.0 mph 6.0 mph 88% 0.00 in 60 W/m2
09:58 30.8 °F 27.7 °F 29.91 in NW 3.0 mph 6.0 mph 88% 0.00 in 54 W/m2
10:04 30.8 °F 27.7 °F 29.92 in WNW 3.0 mph 6.0 mph 88% 0.00 in 37 W/m2
10:10 30.8 °F 27.4 °F 29.92 in WNW 3.0 mph 6.0 mph 87% 0.00 in 35 W/m2
10:16 30.8 °F 27.4 °F 29.92 in North 3.0 mph 6.0 mph 87% 0.00 in 49 W/m2
10:22 30.8 °F 27.1 °F 29.92 in NW 2.0 mph 3.0 mph 86% 0.00 in 63 W/m2
10:28 30.8 °F 27.1 °F 29.92 in WNW 2.0 mph 4.0 mph 86% 0.00 in 53 W/m2
10:34 30.8 °F 27.1 °F 29.92 in NW 3.0 mph 3.0 mph 86% 0.00 in 44 W/m2
10:40 30.9 °F 27.2 °F 29.92 in NW 2.0 mph 2.0 mph 86% 0.00 in 46 W/m2
10:46 30.8 °F 27.1 °F 29.92 in WNW 2.0 mph 4.0 mph 86% 0.00 in 42 W/m2
10:52 30.9 °F 26.9 °F 29.92 in WNW 2.0 mph 3.0 mph 85% 0.00 in 39 W/m2
10:58 30.9 °F 26.9 °F 29.92 in WNW 2.0 mph 3.0 mph 85% 0.00 in 49 W/m2
11:04 31.0 °F 27.0 °F 29.92 in WNW 2.0 mph 4.0 mph 85% 0.00 in 39 W/m2
11:10 31.2 °F 26.9 °F 29.92 in WNW 2.0 mph 2.0 mph 84% 0.00 in 46 W/m2
11:16 31.3 °F 26.7 °F 29.92 in WNW 2.0 mph 3.0 mph 83% 0.00 in 44 W/m2
11:24 31.5 °F 26.9 °F 29.92 in WNW 2.0 mph 4.0 mph 83% 0.00 in 44 W/m2
11:30 31.6 °F 26.4 °F 29.92 in NW 3.0 mph 3.0 mph 81% 0.00 in 42 W/m2
11:34 31.7 °F 25.6 °F 29.92 in NW 3.0 mph 3.0 mph 78% 0.00 in 47 W/m2
11:40 31.8 °F 25.1 °F 29.92 in West 3.0 mph 4.0 mph 76% 0.00 in 56 W/m2
11:42 31.8 °F 24.8 °F 29.92 in WNW 3.0 mph 4.0 mph 75% 0.00 in 54 W/m2
11:48 31.9 °F 24.2 °F 29.92 in North 4.0 mph 5.0 mph 73% 0.00 in 65 W/m2
11:54 32.0 °F 24.3 °F 29.92 in NW 4.0 mph 6.0 mph 73% 0.00 in 58 W/m2
12:00 32.0 °F 24.0 °F 29.92 in WNW 4.0 mph 4.0 mph 72% 0.00 in 100 W/m2
12:06 32.1 °F 23.8 °F 29.91 in NW 4.0 mph 4.0 mph 71% 0.00 in 95 W/m2
12:08 32.1 °F 23.8 °F 29.91 in NNW 4.0 mph 4.0 mph 71% 0.00 in 81 W/m2
12:14 32.1 °F 23.4 °F 29.91 in WNW 4.0 mph 7.0 mph 70% 0.00 in 98 W/m2
12:20 32.2 °F 23.5 °F 29.91 in WNW 4.0 mph 4.0 mph 70% 0.00 in 76 W/m2
12:26 32.2 °F 23.2 °F 29.91 in NW 5.0 mph 9.0 mph 69% 0.00 in 118 W/m2
12:32 32.2 °F 22.8 °F 29.91 in WNW 6.0 mph 9.0 mph 68% 0.00 in 100 W/m2
12:38 32.3 °F 22.9 °F 29.91 in WNW 5.0 mph 9.0 mph 68% 0.00 in 95 W/m2
12:44 32.3 °F 22.9 °F 29.91 in WNW 4.0 mph 5.0 mph 68% 0.00 in 83 W/m2
12:46 32.3 °F 22.9 °F 29.91 in WNW 4.0 mph 5.0 mph 68% 0.00 in 83 W/m2
12:52 32.3 °F 22.9 °F 29.91 in WNW 5.0 mph 7.0 mph 68% 0.00 in 62 W/m2
12:58 32.3 °F 22.9 °F 29.91 in WNW 4.0 mph 7.0 mph 68% 0.00 in 90 W/m2
13:08 32.4 °F 22.7 °F 29.91 in WNW 5.0 mph 8.0 mph 67% 0.00 in 105 W/m2
13:14 32.4 °F 22.7 °F 29.91 in WNW 4.0 mph 6.0 mph 67% 0.00 in 77 W/m2
13:20 32.4 °F 22.7 °F 29.91 in WNW 5.0 mph 5.0 mph 67% 0.00 in 72 W/m2
13:22 32.5 °F 22.8 °F 29.91 in WNW 5.0 mph 5.0 mph 67% 0.00 in 65 W/m2
13:28 32.4 °F 22.7 °F 29.91 in WNW 5.0 mph 7.0 mph 67% 0.00 in 54 W/m2
13:34 32.3 °F 22.6 °F 29.91 in WNW 5.0 mph 6.0 mph 67% 0.00 in 65 W/m2
13:42 32.3 °F 22.9 °F 29.92 in WNW 5.0 mph 6.0 mph 68% 0.00 in 60 W/m2
13:48 32.3 °F 22.9 °F 29.92 in WNW 5.0 mph 6.0 mph 68% 0.00 in 51 W/m2
13:54 32.3 °F 22.9 °F 29.92 in West 4.0 mph 5.0 mph 68% 0.00 in 47 W/m2
14:00 32.3 °F 22.9 °F 29.92 in WNW 4.0 mph 4.0 mph 68% 0.00 in 40 W/m2
14:06 32.3 °F 23.9 °F 29.92 in WNW 3.0 mph 4.0 mph 71% 0.00 in 63 W/m2
14:12 32.1 °F 24.1 °F 29.92 in NW 2.0 mph 3.0 mph 72% 0.00 in 54 W/m2
14:18 32.1 °F 24.1 °F 29.92 in WNW 2.0 mph 3.0 mph 72% 0.00 in 46 W/m2
14:24 32.1 °F 23.8 °F 29.92 in WNW 1.0 mph 3.0 mph 71% 0.00 in 30 W/m2
14:30 32.1 °F 24.7 °F 29.92 in West 1.0 mph 1.0 mph 74% 0.00 in 30 W/m2
14:36 31.9 °F 23.9 °F 29.93 in WNW 2.0 mph 4.0 mph 72% 0.00 in 35 W/m2
14:42 31.9 °F 23.6 °F 29.92 in WNW 3.0 mph 5.0 mph 71% 0.00 in 32 W/m2
14:48 31.9 °F 23.2 °F 29.93 in WNW 4.0 mph 5.0 mph 70% 0.00 in 28 W/m2
14:54 31.8 °F 23.1 °F 29.93 in NW 5.0 mph 8.0 mph 70% 0.00 in 26 W/m2
15:02 31.7 °F 23.0 °F 29.93 in WNW 5.0 mph 5.0 mph 70% 0.00 in 28 W/m2
15:08 31.7 °F 23.0 °F 29.93 in West 5.0 mph 7.0 mph 70% 0.00 in 32 W/m2
15:14 31.6 °F 22.9 °F 29.94 in West 4.0 mph 6.0 mph 70% 0.00 in 26 W/m2
15:20 31.6 °F 22.9 °F 29.94 in WNW 4.0 mph 4.0 mph 70% 0.00 in 19 W/m2
15:26 31.6 °F 22.9 °F 29.94 in West 4.0 mph 4.0 mph 70% 0.00 in 16 W/m2
15:32 31.6 °F 22.9 °F 29.94 in WNW 3.0 mph 6.0 mph 70% 0.00 in 14 W/m2
15:38 31.5 °F 22.8 °F 29.95 in WNW 3.0 mph 6.0 mph 70% 0.00 in 11 W/m2
15:44 31.5 °F 23.5 °F 29.95 in West 2.0 mph 3.0 mph 72% 0.00 in 11 W/m2
15:50 31.2 °F 23.9 °F 29.95 in WSW 2.0 mph 2.0 mph 74% 0.00 in 11 W/m2
15:56 31.0 °F 24.0 °F 29.95 in West 2.0 mph 3.0 mph 75% 0.00 in 7 W/m2
16:02 30.9 °F 24.2 °F 29.96 in WNW 2.0 mph 5.0 mph 76% 0.00 in 7 W/m2
16:08 30.8 °F 24.4 °F 29.96 in WNW 2.0 mph 5.0 mph 77% 0.00 in 7 W/m2
16:14 30.8 °F 24.4 °F 29.96 in WNW 2.0 mph 4.0 mph 77% 0.00 in 0 W/m2
16:20 30.8 °F 24.4 °F 29.97 in WNW 2.0 mph 2.0 mph 77% 0.00 in 0 W/m2
16:26 30.7 °F 24.0 °F 29.97 in WNW 2.0 mph 3.0 mph 76% 0.00 in 0 W/m2
16:32 30.8 °F 23.2 °F 29.97 in WNW 3.0 mph 4.0 mph 73% 0.00 in 0 W/m2
16:38 30.9 °F 22.9 °F 29.97 in WNW 3.0 mph 5.0 mph 72% 0.00 in 0 W/m2
16:44 30.8 °F 22.8 °F 29.97 in NW 3.0 mph 5.0 mph 72% 0.00 in 0 W/m2
16:50 30.8 °F 22.8 °F 29.98 in WNW 3.0 mph 3.0 mph 72% 0.00 in 0 W/m2
16:56 30.8 °F 22.8 °F 29.98 in WNW 3.0 mph 4.0 mph 72% 0.00 in 0 W/m2
17:08 30.8 °F 23.2 °F 29.98 in WNW 2.0 mph 4.0 mph 73% 0.00 in 0 W/m2
17:14 30.8 °F 23.2 °F 29.99 in NW 2.0 mph 5.0 mph 73% 0.00 in 0 W/m2
17:20 30.8 °F 23.2 °F 29.99 in NW 2.0 mph 2.0 mph 73% 0.00 in 0 W/m2
17:26 30.7 °F 23.1 °F 29.99 in NW 2.0 mph 3.0 mph 73% 0.00 in 0 W/m2
17:32 30.7 °F 23.4 °F 29.99 in NW 1.0 mph 2.0 mph 74% 0.00 in 0 W/m2
17:38 30.7 °F 23.7 °F 30.00 in Calm   2.0 mph 75% 0.00 in 0 W/m2
17:44 30.7 °F 24.3 °F 30.00 in West 1.0 mph 3.0 mph 77% 0.00 in 0 W/m2
17:50 30.6 °F 24.6 °F 30.00 in West 2.0 mph 2.0 mph 78% 0.00 in 0 W/m2
17:56 30.5 °F 24.1 °F 30.00 in West 3.0 mph 5.0 mph 77% 0.00 in 0 W/m2
18:02 30.5 °F 23.5 °F 30.00 in WNW 4.0 mph 4.0 mph 75% 0.00 in 0 W/m2
18:10 30.5 °F 22.9 °F 30.01 in WNW 3.0 mph 3.0 mph 73% 0.00 in 0 W/m2
18:16 30.5 °F 22.9 °F 30.01 in WNW 3.0 mph 4.0 mph 73% 0.00 in 0 W/m2
18:18 30.5 °F 22.5 °F 30.01 in WNW 3.0 mph 4.0 mph 72% 0.00 in 0 W/m2
18:24 30.5 °F 22.5 °F 30.02 in WNW 4.0 mph 4.0 mph 72% 0.00 in 0 W/m2
18:30 30.4 °F 22.4 °F 30.02 in WNW 4.0 mph 4.0 mph 72% 0.00 in 0 W/m2
18:36 30.4 °F 22.4 °F 30.02 in NW 3.0 mph 4.0 mph 72% 0.00 in 0 W/m2
18:42 30.3 °F 22.4 °F 30.02 in NW 3.0 mph 5.0 mph 72% 0.00 in 0 W/m2
18:48 30.3 °F 22.4 °F 30.02 in WNW 3.0 mph 7.0 mph 72% 0.00 in 0 W/m2
18:54 30.3 °F 22.0 °F 30.02 in WNW 3.0 mph 3.0 mph 71% 0.00 in 0 W/m2
19:00 30.2 °F 21.9 °F 30.02 in WNW 3.0 mph 5.0 mph 71% 0.00 in 0 W/m2
19:06 30.3 °F 21.7 °F 30.02 in WNW 3.0 mph 5.0 mph 70% 0.00 in 0 W/m2
19:12 30.3 °F 21.7 °F 30.02 in WNW 4.0 mph 4.0 mph 70% 0.00 in 0 W/m2
19:18 30.3 °F 21.3 °F 30.02 in WNW 4.0 mph 5.0 mph 69% 0.00 in 0 W/m2
19:24 30.2 °F 21.6 °F 30.03 in WNW 3.0 mph 5.0 mph 70% 0.00 in 0 W/m2
19:30 30.2 °F 21.2 °F 30.03 in NW 3.0 mph 3.0 mph 69% 0.00 in 0 W/m2
19:36 30.1 °F 20.8 °F 30.03 in NW 4.0 mph 11.0 mph 68% 0.00 in 0 W/m2
19:42 30.1 °F 20.5 °F 30.03 in WNW 4.0 mph 5.0 mph 67% 0.00 in 0 W/m2
19:48 30.0 °F 20.4 °F 30.03 in WNW 3.0 mph 7.0 mph 67% 0.00 in 0 W/m2
19:54 30.0 °F 20.0 °F 30.04 in WNW 4.0 mph 6.0 mph 66% 0.00 in 0 W/m2
20:00 29.9 °F 19.6 °F 30.04 in NW 5.0 mph 5.0 mph 65% 0.00 in 0 W/m2
20:12 29.7 °F 19.7 °F 30.04 in WNW 3.0 mph 7.0 mph 66% 0.00 in 0 W/m2
20:18 29.6 °F 20.0 °F 30.04 in NW 2.0 mph 7.0 mph 67% 0.00 in 0 W/m2
20:24 29.5 °F 19.5 °F 30.04 in NW 2.0 mph 4.0 mph 66% 0.00 in 0 W/m2
20:30 29.5 °F 19.2 °F 30.04 in NW 3.0 mph 3.0 mph 65% 0.00 in 0 W/m2
20:32 29.4 °F 19.1 °F 30.04 in WNW 3.0 mph 5.0 mph 65% 0.00 in 0 W/m2
20:38 29.4 °F 19.1 °F 30.04 in NW 4.0 mph 5.0 mph 65% 0.00 in 0 W/m2
20:40 29.4 °F 18.7 °F 30.04 in NW 4.0 mph 4.0 mph 64% 0.00 in 0 W/m2
20:46 29.4 °F 18.7 °F 30.04 in NW 4.0 mph 4.0 mph 64% 0.00 in 0 W/m2
20:52 29.2 °F 18.2 °F 30.04 in NNW 4.0 mph 5.0 mph 63% 0.00 in 0 W/m2
20:58 29.2 °F 18.2 °F 30.05 in WNW 4.0 mph 5.0 mph 63% 0.00 in 0 W/m2
21:04 29.1 °F 18.4 °F 30.04 in NW 3.0 mph 3.0 mph 64% 0.00 in 0 W/m2
21:10 29.1 °F 18.1 °F 30.04 in NW 4.0 mph 5.0 mph 63% 0.00 in 0 W/m2
21:16 29.1 °F 18.4 °F 30.04 in WNW 4.0 mph 6.0 mph 64% 0.00 in 0 W/m2
21:22 29.0 °F 18.3 °F 30.05 in WNW 3.0 mph 6.0 mph 64% 0.00 in 0 W/m2
21:28 29.0 °F 18.3 °F 30.05 in NW 3.0 mph 6.0 mph 64% 0.00 in 0 W/m2
21:34 29.0 °F 18.7 °F 30.05 in WNW 2.0 mph 3.0 mph 65% 0.00 in 0 W/m2
21:40 28.9 °F 18.6 °F 30.05 in NW 2.0 mph 2.0 mph 65% 0.00 in 0 W/m2
21:46 28.7 °F 18.4 °F 30.05 in NNW 2.0 mph 4.0 mph 65% 0.00 in 0 W/m2
21:52 28.6 °F 18.0 °F 30.06 in WNW 4.0 mph 4.0 mph 64% 0.00 in 0 W/m2
21:58 28.6 °F 18.0 °F 30.06 in NW 3.0 mph 4.0 mph 64% 0.00 in 0 W/m2
22:04 28.5 °F 18.2 °F 30.06 in NW 2.0 mph 3.0 mph 65% 0.00 in 0 W/m2
22:10 28.5 °F 18.2 °F 30.06 in NW 3.0 mph 3.0 mph 65% 0.00 in 0 W/m2
22:18 28.4 °F 18.1 °F 30.06 in WNW 3.0 mph 4.0 mph 65% 0.00 in 0 W/m2
22:24 28.4 °F 17.8 °F 30.06 in NW 3.0 mph 3.0 mph 64% 0.00 in 0 W/m2
22:30 28.3 °F 18.0 °F 30.06 in WNW 3.0 mph 5.0 mph 65% 0.00 in 0 W/m2
22:36 28.3 °F 18.0 °F 30.06 in WNW 3.0 mph 5.0 mph 65% 0.00 in 0 W/m2
22:44 28.3 °F 18.0 °F 30.06 in WNW 2.0 mph 3.0 mph 65% 0.00 in 0 W/m2
22:50 28.2 °F 17.9 °F 30.06 in WNW 2.0 mph 2.0 mph 65% 0.00 in 0 W/m2
22:52 28.2 °F 17.9 °F 30.06 in WNW 2.0 mph 2.0 mph 65% 0.00 in 0 W/m2
22:58 28.1 °F 18.2 °F 30.06 in WNW 2.0 mph 3.0 mph 66% 0.00 in 0 W/m2
23:04 28.1 °F 17.8 °F 30.06 in WNW 2.0 mph 4.0 mph 65% 0.00 in 0 W/m2
23:10 28.1 °F 18.2 °F 30.06 in NNW 3.0 mph 6.0 mph 66% 0.00 in 0 W/m2
23:16 28.0 °F 18.1 °F 30.07 in WNW 3.0 mph 6.0 mph 66% 0.00 in 0 W/m2
23:22 27.9 °F 18.4 °F 30.06 in NNW 3.0 mph 6.0 mph 67% 0.00 in 0 W/m2
23:30 27.7 °F 17.8 °F 30.07 in NNW 3.0 mph 3.0 mph 66% 0.00 in 0 W/m2
23:36 27.5 °F 17.6 °F 30.07 in NW 3.0 mph 6.0 mph 66% 0.00 in 0 W/m2
23:40 27.4 °F 17.9 °F 30.07 in NW 2.0 mph 2.0 mph 67% 0.00 in 0 W/m2
23:46 27.3 °F 17.8 °F 30.07 in WNW 2.0 mph 4.0 mph 67% 0.00 in 0 W/m2
23:52 27.3 °F 17.4 °F 30.07 in WNW 3.0 mph 7.0 mph 66% 0.00 in 0 W/m2
23:58 27.3 °F 17.4 °F 30.07 in NNW 2.0 mph 7.0 mph 66% 0.00 in 0 W/m2
Country Meadow, Clay, NY, USA
Compliments of Weather Underground - 2 mb